• Join FlightAware (Why Join?)
  • Login
  • US Flag 
05:08AM EDT


 

Airport Tracker/Info


-or-


 

Live Flight TrackerFlight Track Log ✈ JIA2334 ✈ 19-Jul-2013 ✈ KCHS - KDCA

Flight Track Log - Related Links

Times and Time Zones

All times are in EDT time to prevent confusion due to time zone crossing. See the JIA2334 flight status page for this flight to view local times or setup timezone preferences in your user account.

Time Position Orientation Groundspeed Altitude Reporting Facility
EDT Latitude Longitude Course Direction KTS MPH feet Rate Location/Type
01:48PM 32.8928 -79.9808 13° North 193 222 4,000  Level Jacksonville Center
01:49PM 32.9461 -79.9344 36° Northeast 234 269 6,200 2,400 Climbing Jacksonville Center
01:50PM 33.0275 -79.9344 360° North 251 289 8,900 2,520 Climbing Jacksonville Center
01:51PM 33.3239 -79.9047 23° Northeast  Level FlightAware Approximate
01:51PM 33.1131 -79.9364 359° North 274 315 11,400  Level Jacksonville Center
01:52PM 33.4109 -79.8745 North  Level FlightAware Approximate
01:52PM 33.2008 -79.9436 356° North 298 343 13,700  Level Jacksonville Center
01:53PM 33.5001 -79.8524 13° North  Level FlightAware Approximate
01:53PM 33.2908 -79.9506 356° North 313 360 15,600  Level Jacksonville Center
01:54PM 33.5888 -79.8270 13° North  Level FlightAware Approximate
01:54PM 33.3844 -79.9425 North 324 373 17,600  Level Jacksonville Center
01:55PM 33.4736 -79.9119 16° North 330 380 19,100 1,500 Climbing Jacksonville Center
01:56PM 33.5647 -79.8792 17° North 335 386 20,700 1,500 Climbing Jacksonville Center
01:57PM 33.6597 -79.8458 16° North 335 386 22,100 1,200 Climbing Jacksonville Center
01:58PM 33.7550 -79.8075 18° North 346 398 23,200 960 Climbing Jacksonville Center
01:59PM 33.8561 -79.7617 21° North 361 415 24,100 840 Climbing Jacksonville Center
02:00PM 33.9311 -79.6739 44° Northeast 371 427 25,000 1,020 Climbing Jacksonville Center
02:02PM 34.0572 -79.5222 45° Northeast 367 422 26,900 1,080 Climbing Washington Center
02:03PM 34.1289 -79.4303 47° Northeast 373 429 27,900 900 Climbing Washington Center
02:04PM 34.2050 -79.3383 45° Northeast 373 429 28,700 780 Climbing Washington Center
02:05PM 34.2806 -79.2589 41° Northeast 381 438 29,500 780 Climbing Washington Center
02:06PM 34.3803 -79.1978 27° Northeast 386 444 30,300 720 Climbing Washington Center
02:07PM 34.4800 -79.1442 24° Northeast 386 444 31,000 300 Climbing Washington Center
02:08PM 34.5756 -79.0878 26° Northeast 386 444 31,000  Level Washington Center
02:09PM 34.6689 -79.0339 25° Northeast 381 438 31,000  Level Washington Center
02:10PM 34.7644 -78.9772 26° Northeast 376 433 31,000  Level Washington Center
02:11PM 34.8600 -78.9231 25° Northeast 376 433 31,000  Level Washington Center
02:12PM 34.9575 -78.8661 26° Northeast 376 433 31,000  Level Washington Center
02:13PM 35.0550 -78.8092 26° Northeast 376 433 31,000  Level Washington Center
02:14PM 35.1503 -78.7522 26° Northeast 376 433 31,000  Level Washington Center
02:15PM 35.2478 -78.6975 25° Northeast 376 433 31,000  Level Washington Center
02:16PM 35.3558 -78.6303 27° Northeast 383 441 31,000  Level Washington Center
02:17PM 35.4450 -78.5775 26° Northeast 388 447 31,000  Level Washington Center
02:18PM 35.5572 -78.5103 26° Northeast 393 452 31,000  Level Washington Center
02:19PM 35.6694 -78.4453 25° Northeast 419 482 31,000  Level Washington Center
02:20PM 35.7772 -78.3800 26° Northeast 426 490 31,000  Level Washington Center
02:21PM 35.8872 -78.3172 25° Northeast 431 496 31,000  Level Washington Center
02:22PM 35.9994 -78.2492 26° Northeast 431 496 31,000 -180 Level Washington Center
02:23PM 36.1094 -78.1808 27° Northeast 431 496 30,700 -960 Descending Washington Center
02:24PM 36.2297 -78.1103 25° Northeast 441 507 29,100 -1,680 Descending Washington Center
02:25PM 36.3461 -78.0392 26° Northeast 452 520 27,500 -1,080 Descending Washington Center
02:26PM 36.4453 -77.9778 26° Northeast 452 520 27,000 -300 Descending Washington Center
02:27PM 36.5614 -77.9089 25° Northeast 452 520 27,000 -420 Level Washington Center
02:28PM 36.6781 -77.8139 33° Northeast 457 526 26,200 -960 Descending Washington Center
02:29PM 36.7797 -77.7208 36° Northeast 457 526 25,200 -1,020 Descending Washington Center
02:30PM 36.8933 -77.6617 23° Northeast 447 514 24,200 -1,020 Descending Washington Center
02:31PM 37.0131 -77.6208 15° North 439 505 23,200 -1,020 Descending Washington Center
02:32PM 37.1286 -77.5794 16° North 434 499 22,200 -600 Descending Washington Center
02:33PM 37.2439 -77.5381 16° North 429 494 22,000 -120 Descending Washington Center
02:34PM 37.3592 -77.4992 15° North 424 488 22,000  Level Washington Center
02:35PM 37.4747 -77.4550 17° North 419 482 22,000 -60 Level Washington Center
02:36PM 37.5922 -77.4133 16° North 419 482 21,900 -600 Descending Washington Center
02:37PM 37.7053 -77.3742 15° North 419 482 20,900 -1,320 Descending Washington Center
02:38PM 37.7956 -77.3394 17° North 419 482 19,300 -1,680 Descending Washington Center
02:39PM 37.9278 -77.2897 17° North 419 482 17,600 -1,440 Descending Washington Center
02:40PM 38.0156 -77.2603 15° North 414 476 16,400 -1,680 Descending Washington Center
02:41PM 38.1289 -77.2178 16° North 402 463 14,200 -2,640 Descending Washington Center
02:42PM 38.2419 -77.1778 16° North 386 444 11,200 -2,160 Descending Washington Center
02:43PM 38.3300 -77.1506 14° North 376 433 10,000 -600 Descending Washington Center
02:44PM 38.4303 -77.1289 10° North 366 421 10,000  Level Washington Center
02:45PM 38.5264 -77.1097 North 361 415 10,000  Level Washington Center
02:46PM 38.6267 -77.0878 10° North 356 410 10,000 -420 Level Washington Center
02:47PM 38.7000 -77.0667 13° North 298 343 9,300 -1,380 Descending Potomac TRACON
02:48PM 38.7833 -77.0833 351° North 286 329 7,700 -1,320 Descending Potomac TRACON
02:49PM 38.8500 -77.1333 330° Northwest 287 330 6,600 -1,020 Descending Potomac TRACON
02:50PM 38.9000 -77.2000 314° West 272 313 5,600 -1,260 Descending Potomac TRACON
02:51PM 38.9667 -77.2500 330° Northwest 266 306 4,100 -1,500 Descending Potomac TRACON